Time;durP1;ratioP1;P1;durP2;ratioP2;P2;SDS_P1;SDS_P2;PMS_P1;PMS_P2;Temp;Humidity;BMP_temperature;BMP_pressure;BME280_temperature;BME280_humidity;BME280_pressure;Samples;Min_cycle;Max_cycle;Signal;HPM_P1;HPM_P2
2022/11/09 00:00:00;;;;;;;1.23;1.08;;;16.70;69.60;;;;;;5032987;28;20057;-73
2022/11/09 00:02:27;;;;;;;1.85;1.13;;;16.70;69.60;;;;;;5032885;28;20049;-73
2022/11/09 00:04:54;;;;;;;1.52;1.20;;;16.70;69.70;;;;;;5033594;28;20063;-73
2022/11/09 00:07:20;;;;;;;1.48;1.20;;;16.70;69.60;;;;;;5032824;28;20059;-73
2022/11/09 00:09:47;;;;;;;1.50;1.00;;;16.70;69.70;;;;;;5033389;28;20069;-73
2022/11/09 00:12:15;;;;;;;1.70;1.10;;;16.70;69.70;;;;;;5032400;28;20049;-73
2022/11/09 00:14:42;;;;;;;1.90;1.27;;;16.70;69.70;;;;;;5033050;28;20136;-73
2022/11/09 00:17:08;;;;;;;2.28;1.25;;;16.70;69.70;;;;;;5032945;28;20170;-73
2022/11/09 00:19:35;;;;;;;1.60;1.10;;;16.70;69.70;;;;;;5033164;28;20053;-73
2022/11/09 00:22:02;;;;;;;3.10;1.30;;;16.70;69.70;;;;;;5032073;28;20072;-73
2022/11/09 00:24:29;;;;;;;1.67;1.20;;;16.60;69.70;;;;;;5032982;28;20140;-73
2022/11/09 00:26:55;;;;;;;1.70;1.23;;;16.60;69.70;;;;;;5033566;28;20064;-72
2022/11/09 00:29:23;;;;;;;2.20;1.30;;;16.60;69.70;;;;;;5034765;28;20053;-72
2022/11/09 00:31:50;;;;;;;1.92;1.20;;;16.60;69.70;;;;;;5032520;28;20053;-73
2022/11/09 00:34:17;;;;;;;1.83;1.10;;;16.60;69.70;;;;;;5034026;28;20075;-73
2022/11/09 00:36:44;;;;;;;2.55;1.33;;;16.60;69.70;;;;;;5034271;28;20410;-73
2022/11/09 00:39:10;;;;;;;1.10;1.00;;;16.60;69.70;;;;;;5034183;28;20059;-73
2022/11/09 00:41:37;;;;;;;1.25;1.15;;;16.60;69.70;;;;;;5032653;28;20053;-73
2022/11/09 00:44:04;;;;;;;1.80;1.10;;;16.60;69.80;;;;;;5033871;28;20071;-72
2022/11/09 00:46:32;;;;;;;2.65;1.20;;;16.60;69.80;;;;;;5034591;28;20402;-73
2022/11/09 00:48:59;;;;;;;1.58;1.20;;;16.60;69.80;;;;;;5034296;28;20046;-73
2022/11/09 00:51:26;;;;;;;1.20;1.10;;;16.50;69.80;;;;;;5032509;28;20060;-73
2022/11/09 00:53:53;;;;;;;1.48;1.20;;;16.50;69.80;;;;;;5032509;28;20045;-72
2022/11/09 00:56:20;;;;;;;2.65;1.15;;;16.50;69.80;;;;;;5033261;28;20445;-73
2022/11/09 00:58:46;;;;;;;1.70;1.33;;;16.50;69.80;;;;;;5032860;28;20057;-73
2022/11/09 01:01:14;;;;;;;1.30;1.20;;;16.50;69.80;;;;;;5032272;28;20060;-73
2022/11/09 01:03:42;;;;;;;1.92;1.30;;;16.50;69.80;;;;;;5033309;28;20052;-72
2022/11/09 01:06:09;;;;;;;1.70;1.20;;;16.50;69.90;;;;;;5032687;28;20049;-73
2022/11/09 01:08:36;;;;;;;1.42;1.10;;;16.50;69.90;;;;;;5032831;28;20140;-73
2022/11/09 01:11:04;;;;;;;1.52;1.30;;;16.50;69.90;;;;;;5033110;28;20072;-72
2022/11/09 01:13:31;;;;;;;2.55;1.35;;;16.50;69.90;;;;;;5031500;28;20049;-73
2022/11/09 01:15:58;;;;;;;2.45;1.20;;;16.50;69.90;;;;;;5033741;28;20407;-73
2022/11/09 01:18:25;;;;;;;1.70;1.30;;;16.50;69.90;;;;;;5032696;28;20049;-73
2022/11/09 01:20:53;;;;;;;2.85;1.17;;;16.50;69.90;;;;;;5032969;28;20410;-72
2022/11/09 01:23:20;;;;;;;1.30;1.10;;;16.50;69.90;;;;;;5032117;28;20053;-73
2022/11/09 01:25:46;;;;;;;1.77;1.17;;;16.50;69.90;;;;;;5032168;28;20495;-73
2022/11/09 01:28:13;;;;;;;1.70;1.20;;;16.50;69.90;;;;;;5032170;28;20056;-72
2022/11/09 01:30:41;;;;;;;2.03;1.30;;;16.50;69.90;;;;;;5031570;28;20068;-73
2022/11/09 01:33:09;;;;;;;1.58;1.15;;;16.50;69.90;;;;;;5031388;28;20437;-72
2022/11/09 01:35:36;;;;;;;1.48;0.90;;;16.50;70.00;;;;;;5033307;28;20132;-73
2022/11/09 01:38:04;;;;;;;2.47;1.30;;;16.50;70.00;;;;;;5032135;28;20053;-73
2022/11/09 01:40:32;;;;;;;2.70;1.27;;;16.30;72.00;;;;;;5032626;28;20049;-73
2022/11/09 01:42:58;;;;;;;2.00;1.30;;;16.50;70.00;;;;;;5013119;28;20052;-73
2022/11/09 01:45:27;;;;;;;1.35;1.17;;;16.50;70.00;;;;;;5012888;28;20056;-73
2022/11/09 01:47:59;;;;;;;1.33;1.10;;;16.50;70.00;;;;;;5013103;28;20054;-72
2022/11/09 01:50:31;;;;;;;1.98;1.30;;;16.40;69.90;;;;;;5012803;28;20056;-72
2022/11/09 01:52:58;;;;;;;1.92;1.30;;;16.50;70.00;;;;;;5031410;28;20508;-72
2022/11/09 01:55:26;;;;;;;2.38;1.30;;;16.40;69.90;;;;;;5031376;28;20136;-73
2022/11/09 01:57:54;;;;;;;1.70;1.10;;;16.40;70.00;;;;;;5031185;28;20513;-73
2022/11/09 02:00:21;;;;;;;1.23;1.10;;;16.50;70.00;;;;;;5031832;28;20139;-73
2022/11/09 02:02:50;;;;;;;1.92;1.40;;;16.40;70.00;;;;;;5031780;28;20092;-72
2022/11/09 02:05:19;;;;;;;1.75;1.20;;;16.40;70.00;;;;;;5031537;28;20140;-73
2022/11/09 02:07:45;;;;;;;1.38;1.20;;;16.40;70.00;;;;;;5031459;28;20049;-73
2022/11/09 02:10:14;;;;;;;2.03;1.30;;;16.40;70.00;;;;;;5031363;28;20058;-72
2022/11/09 02:12:42;;;;;;;2.33;1.30;;;16.40;70.00;;;;;;5032720;28;20049;-73
2022/11/09 02:15:09;;;;;;;2.42;1.20;;;16.40;70.00;;;;;;5031490;28;20057;-73
2022/11/09 02:17:36;;;;;;;1.27;1.00;;;16.40;70.00;;;;;;5032374;28;20049;-73
2022/11/09 02:20:09;;;;;;;2.35;1.20;;;16.40;70.00;;;;;;5030493;28;20059;-72
2022/11/09 02:22:36;;;;;;;1.38;1.13;;;16.40;70.00;;;;;;5031645;28;20550;-73
2022/11/09 02:25:02;;;;;;;1.98;1.17;;;16.40;70.00;;;;;;5031190;28;20064;-73
2022/11/09 02:27:29;;;;;;;3.38;1.10;;;16.40;70.00;;;;;;5031065;28;20058;-73
2022/11/09 02:29:56;;;;;;;1.40;1.15;;;16.40;70.00;;;;;;5030611;28;20059;-73
2022/11/09 02:32:23;;;;;;;1.65;1.13;;;16.40;70.00;;;;;;5030913;28;20053;-73
2022/11/09 02:34:50;;;;;;;1.48;1.15;;;16.40;70.00;;;;;;5031049;28;20136;-72
2022/11/09 02:37:26;;;;;;;1.50;1.20;;;16.40;70.00;;;;;;5030810;28;20053;-73
2022/11/09 02:39:53;;;;;;;2.22;1.35;;;16.40;70.00;;;;;;5030788;28;20057;-72
2022/11/09 02:42:20;;;;;;;1.98;1.20;;;16.40;70.00;;;;;;5030785;28;20130;-73
2022/11/09 02:44:49;;;;;;;1.70;1.20;;;16.40;70.00;;;;;;5031163;28;20053;-73
2022/11/09 02:47:15;;;;;;;1.48;1.20;;;16.30;70.00;;;;;;5031872;28;20045;-72
2022/11/09 02:49:42;;;;;;;1.70;1.30;;;16.40;70.10;;;;;;5031582;28;20162;-72
2022/11/09 02:52:09;;;;;;;1.65;1.20;;;16.40;70.00;;;;;;5030437;28;20053;-73
2022/11/09 02:54:37;;;;;;;1.98;1.10;;;16.30;70.00;;;;;;5032070;28;20053;-72
2022/11/09 02:57:04;;;;;;;1.85;1.38;;;16.40;70.10;;;;;;5033557;28;20064;-73
2022/11/09 02:59:30;;;;;;;1.50;1.15;;;16.40;70.10;;;;;;5034231;28;20490;-73
2022/11/09 03:01:57;;;;;;;1.83;1.17;;;16.40;70.10;;;;;;5035297;28;20053;-73
2022/11/09 03:04:24;;;;;;;2.95;1.33;;;16.40;70.60;;;;;;5035653;28;20045;-73
2022/11/09 03:06:50;;;;;;;1.83;1.30;;;16.30;70.00;;;;;;5034828;28;20505;-72
2022/11/09 03:09:17;;;;;;;1.70;1.40;;;16.30;70.00;;;;;;5034150;28;20137;-73
2022/11/09 03:11:48;;;;;;;1.77;1.17;;;16.30;70.00;;;;;;5033926;28;20473;-72
2022/11/09 03:14:15;;;;;;;1.55;1.10;;;16.30;70.10;;;;;;5035578;28;20049;-72
2022/11/09 03:16:41;;;;;;;1.33;1.10;;;16.30;70.00;;;;;;5034744;28;20053;-73
2022/11/09 03:19:08;;;;;;;1.20;1.10;;;16.30;70.00;;;;;;5035128;28;20049;-72
2022/11/09 03:21:35;;;;;;;1.70;1.30;;;16.30;70.00;;;;;;5034298;28;20068;-72
2022/11/09 03:24:02;;;;;;;2.05;1.20;;;16.30;70.10;;;;;;5034387;28;20825;-73
2022/11/09 03:26:28;;;;;;;1.75;1.17;;;16.30;70.10;;;;;;5035607;28;20056;-72
2022/11/09 03:28:56;;;;;;;1.50;1.25;;;16.30;70.00;;;;;;5033672;28;20057;-73
2022/11/09 03:31:23;;;;;;;1.75;0.98;;;16.30;70.00;;;;;;5033836;28;20078;-73
2022/11/09 03:33:50;;;;;;;1.98;1.30;;;16.30;70.10;;;;;;5035302;28;20384;-73
2022/11/09 03:36:16;;;;;;;4.07;1.27;;;16.30;70.10;;;;;;5033996;28;20060;-73
2022/11/09 03:38:43;;;;;;;2.03;1.30;;;16.30;70.10;;;;;;5034613;28;20062;-72
2022/11/09 03:41:10;;;;;;;1.30;1.00;;;16.30;70.10;;;;;;5034721;28;20068;-73
2022/11/09 03:43:36;;;;;;;1.75;1.13;;;16.30;70.10;;;;;;5033621;28;20057;-73
2022/11/09 03:46:04;;;;;;;1.33;1.20;;;16.30;70.10;;;;;;5033743;28;20057;-73
2022/11/09 03:48:31;;;;;;;1.35;1.10;;;16.30;70.20;;;;;;5035163;28;20053;-73
2022/11/09 03:50:58;;;;;;;1.35;1.10;;;16.30;70.20;;;;;;5033200;28;20550;-73
2022/11/09 03:53:25;;;;;;;1.92;1.27;;;16.30;70.20;;;;;;5033550;28;20049;-73
2022/11/09 03:55:51;;;;;;;1.98;1.10;;;16.30;70.20;;;;;;5033968;28;20071;-73
2022/11/09 03:58:18;;;;;;;2.65;1.27;;;16.30;70.20;;;;;;5033894;28;20133;-73
2022/11/09 04:00:45;;;;;;;2.40;1.20;;;16.30;70.20;;;;;;5033466;28;20085;-73
2022/11/09 04:03:13;;;;;;;2.03;1.30;;;16.30;70.20;;;;;;5033052;28;20053;-72
2022/11/09 04:05:39;;;;;;;1.15;1.05;;;16.20;70.10;;;;;;5033907;28;20054;-73
2022/11/09 04:08:06;;;;;;;2.25;1.40;;;16.20;70.10;;;;;;5034502;28;20152;-73
2022/11/09 04:10:33;;;;;;;1.50;1.30;;;16.20;70.20;;;;;;5033480;28;20144;-73
2022/11/09 04:12:59;;;;;;;1.63;1.13;;;16.20;70.20;;;;;;5033256;28;20676;-73
2022/11/09 04:15:26;;;;;;;2.85;1.20;;;16.20;70.20;;;;;;5033160;28;20057;-73
2022/11/09 04:17:57;;;;;;;2.38;1.40;;;16.20;70.20;;;;;;5033166;28;20055;-73
2022/11/09 04:20:25;;;;;;;2.25;1.13;;;16.20;70.20;;;;;;5033107;28;20143;-73
2022/11/09 04:22:55;;;;;;;2.03;1.27;;;16.20;70.20;;;;;;5034104;28;20145;-73
2022/11/09 04:25:22;;;;;;;1.33;1.13;;;16.20;70.20;;;;;;5033227;28;20139;-73
2022/11/09 04:27:49;;;;;;;1.77;1.10;;;16.20;70.20;;;;;;5032821;28;20136;-73
2022/11/09 04:30:16;;;;;;;1.40;1.10;;;16.20;70.20;;;;;;5032388;28;20413;-73
2022/11/09 04:32:42;;;;;;;2.22;1.10;;;16.20;70.30;;;;;;5032583;28;20063;-73
2022/11/09 04:35:09;;;;;;;1.80;1.17;;;16.20;70.20;;;;;;5033172;28;20061;-73
2022/11/09 04:37:37;;;;;;;1.58;1.20;;;16.20;70.20;;;;;;5032850;28;20132;-73
2022/11/09 04:40:05;;;;;;;1.35;1.10;;;16.20;70.30;;;;;;5031809;28;20120;-73
2022/11/09 04:42:32;;;;;;;1.60;1.10;;;16.20;70.30;;;;;;5013039;28;20137;-73
2022/11/09 04:44:58;;;;;;;1.25;1.00;;;16.20;70.30;;;;;;5014089;28;20416;-73
2022/11/09 04:47:25;;;;;;;1.88;1.10;;;16.20;70.30;;;;;;5013063;28;20133;-73
2022/11/09 04:49:52;;;;;;;1.20;1.00;;;16.20;70.30;;;;;;5028121;28;20144;-73
2022/11/09 04:52:18;;;;;;;1.70;1.20;;;16.20;70.30;;;;;;5013773;28;20049;-73
2022/11/09 04:54:47;;;;;;;1.73;1.20;;;16.10;70.30;;;;;;5062746;28;20049;-73
2022/11/09 04:57:13;;;;;;;2.08;1.35;;;16.10;70.30;;;;;;5033235;28;20041;-72
2022/11/09 04:59:40;;;;;;;1.75;1.15;;;16.10;70.30;;;;;;5028760;28;20064;-73
2022/11/09 05:02:07;;;;;;;1.63;1.15;;;16.10;70.30;;;;;;5028728;28;20057;-73
2022/11/09 05:04:33;;;;;;;2.40;1.20;;;16.20;70.40;;;;;;5029275;28;20057;-72
2022/11/09 05:07:00;;;;;;;2.60;1.08;;;16.10;70.30;;;;;;5013946;28;20046;-73
2022/11/09 05:09:27;;;;;;;1.95;1.30;;;16.10;70.30;;;;;;5028912;28;20064;-73
2022/11/09 05:11:55;;;;;;;1.67;1.15;;;16.10;70.30;;;;;;5013089;28;20060;-72
2022/11/09 05:14:22;;;;;;;2.28;1.20;;;16.10;70.40;;;;;;5032277;28;20187;-72
2022/11/09 05:16:48;;;;;;;1.75;1.30;;;16.10;70.40;;;;;;5032433;28;20059;-73
2022/11/09 05:19:15;;;;;;;1.42;1.02;;;16.10;70.40;;;;;;5030842;28;20085;-73
2022/11/09 05:21:42;;;;;;;2.00;1.25;;;16.10;70.40;;;;;;5031776;28;20059;-72
2022/11/09 05:24:08;;;;;;;1.60;1.10;;;16.00;71.90;;;;;;5032839;28;20490;-73
2022/11/09 05:26:35;;;;;;;1.45;1.20;;;16.10;70.40;;;;;;5033643;28;20055;-73
2022/11/09 05:29:04;;;;;;;1.77;1.38;;;16.10;70.40;;;;;;5031519;28;20061;-74
2022/11/09 05:31:31;;;;;;;1.40;1.15;;;16.10;70.40;;;;;;5032471;28;20055;-73
2022/11/09 05:33:58;;;;;;;1.30;1.20;;;16.10;70.40;;;;;;5031677;28;20045;-73
2022/11/09 05:36:25;;;;;;;1.52;1.10;;;16.10;70.40;;;;;;5031822;28;20099;-72
2022/11/09 05:38:52;;;;;;;1.58;1.20;;;16.10;70.40;;;;;;5032867;28;20081;-73
2022/11/09 05:41:18;;;;;;;1.70;1.10;;;16.10;70.40;;;;;;5031510;28;20053;-72
2022/11/09 05:43:45;;;;;;;1.55;1.10;;;16.10;70.40;;;;;;5031621;28;20128;-73
2022/11/09 05:46:13;;;;;;;1.48;1.10;;;16.10;70.40;;;;;;5033119;28;20091;-73
2022/11/09 05:48:40;;;;;;;1.67;1.20;;;16.10;70.40;;;;;;5032492;28;20056;-73
2022/11/09 05:51:07;;;;;;;1.70;1.17;;;16.10;70.40;;;;;;5032202;28;20045;-73
2022/11/09 05:53:34;;;;;;;1.25;1.02;;;16.10;70.40;;;;;;5032659;28;20049;-73
2022/11/09 05:56:02;;;;;;;2.10;1.08;;;16.10;70.40;;;;;;5031605;28;20490;-72
2022/11/09 05:58:29;;;;;;;2.08;1.17;;;16.10;70.40;;;;;;5031571;28;20060;-72
2022/11/09 06:00:55;;;;;;;1.15;1.00;;;16.10;70.40;;;;;;5031971;28;20049;-73
2022/11/09 06:03:23;;;;;;;1.20;1.10;;;16.10;70.40;;;;;;5031481;28;20046;-73
2022/11/09 06:05:50;;;;;;;1.85;1.08;;;16.10;70.40;;;;;;5031912;28;20431;-73
2022/11/09 06:08:17;;;;;;;1.63;1.00;;;16.00;70.40;;;;;;5031153;28;20057;-73
2022/11/09 06:10:44;;;;;;;1.80;1.10;;;16.10;70.40;;;;;;5031341;28;20051;-73
2022/11/09 06:13:10;;;;;;;1.83;1.08;;;16.10;70.40;;;;;;5031153;28;20479;-73
2022/11/09 06:15:37;;;;;;;2.47;1.10;;;16.10;70.50;;;;;;5032278;28;20073;-73
2022/11/09 06:18:04;;;;;;;1.95;1.10;;;16.00;70.40;;;;;;5031196;28;20490;-72
2022/11/09 06:20:32;;;;;;;2.85;1.20;;;16.10;70.40;;;;;;5030484;28;20060;-72
2022/11/09 06:23:00;;;;;;;1.70;1.10;;;16.10;70.40;;;;;;5030739;28;20518;-72
2022/11/09 06:25:27;;;;;;;1.60;1.10;;;16.00;70.40;;;;;;5027180;28;20056;-72
2022/11/09 06:27:54;;;;;;;1.67;1.10;;;16.00;70.40;;;;;;5012369;28;20054;-72
2022/11/09 06:30:21;;;;;;;1.55;1.20;;;16.00;70.40;;;;;;5010135;28;20153;-72
2022/11/09 06:32:48;;;;;;;1.70;1.10;;;16.00;70.40;;;;;;5011092;28;20133;-72
2022/11/09 06:35:15;;;;;;;1.67;1.00;;;16.00;70.40;;;;;;5010732;28;20060;-72
2022/11/09 06:37:43;;;;;;;4.32;1.08;;;16.00;70.40;;;;;;5010827;28;20141;-72
2022/11/09 06:40:11;;;;;;;2.15;1.00;;;16.00;70.40;;;;;;5018491;28;20111;-72
2022/11/09 06:42:38;;;;;;;1.00;0.90;;;16.00;70.40;;;;;;5030627;28;20057;-72
2022/11/09 06:45:05;;;;;;;2.42;1.15;;;16.00;70.40;;;;;;5030991;28;20053;-72
2022/11/09 06:47:32;;;;;;;2.53;1.02;;;16.10;70.50;;;;;;5030740;28;20498;-72
2022/11/09 06:49:58;;;;;;;2.55;1.20;;;16.00;70.40;;;;;;5030052;28;20064;-72
2022/11/09 06:52:25;;;;;;;2.67;1.20;;;16.00;70.40;;;;;;5030693;28;20065;-72
2022/11/09 06:54:53;;;;;;;1.77;1.20;;;16.00;70.40;;;;;;5030017;28;20056;-72
2022/11/09 06:57:20;;;;;;;1.95;1.10;;;16.00;70.40;;;;;;5031735;28;20661;-72
2022/11/09 06:59:47;;;;;;;1.10;1.00;;;16.00;70.40;;;;;;5030577;28;20059;-72
2022/11/09 07:02:15;;;;;;;2.00;1.08;;;16.00;70.40;;;;;;5029595;28;21146;-72
2022/11/09 07:04:42;;;;;;;1.60;1.00;;;16.00;70.40;;;;;;5054912;28;20133;-72
2022/11/09 07:07:08;;;;;;;3.30;1.20;;;16.00;70.40;;;;;;5026553;28;20560;-74
2022/11/09 07:09:35;;;;;;;2.22;1.20;;;16.00;70.50;;;;;;5027394;28;20531;-72
2022/11/09 07:12:03;;;;;;;2.47;1.20;;;16.00;70.40;;;;;;5029810;28;20053;-72
2022/11/09 07:14:30;;;;;;;2.60;1.13;;;16.00;70.40;;;;;;5030137;28;20153;-72
2022/11/09 07:16:57;;;;;;;1.90;1.25;;;16.00;70.40;;;;;;5031552;28;20054;-72
2022/11/09 07:19:23;;;;;;;2.00;1.20;;;16.00;70.40;;;;;;5039601;28;20136;-73
2022/11/09 07:21:50;;;;;;;3.25;1.17;;;16.00;70.40;;;;;;5040015;28;20521;-73
2022/11/09 07:24:17;;;;;;;2.55;1.20;;;16.00;70.40;;;;;;5035680;28;20041;-73
2022/11/09 07:26:43;;;;;;;4.13;1.40;;;16.10;70.40;;;;;;5042468;28;20059;-73
2022/11/09 07:29:11;;;;;;;4.00;1.20;;;16.10;70.30;;;;;;5042091;28;20428;-73
2022/11/09 07:31:38;;;;;;;2.80;1.40;;;16.10;70.30;;;;;;5042426;28;20059;-73
2022/11/09 07:34:05;;;;;;;7.25;1.40;;;16.20;70.30;;;;;;5051328;28;20048;-73
2022/11/09 07:36:32;;;;;;;4.30;1.50;;;16.20;70.20;;;;;;5051768;28;20064;-72
2022/11/09 07:38:58;;;;;;;4.20;1.40;;;16.20;70.20;;;;;;5035042;28;20406;-73
2022/11/09 07:41:25;;;;;;;2.15;1.38;;;16.20;70.10;;;;;;5032298;28;20057;-73
2022/11/09 07:43:52;;;;;;;2.08;1.35;;;16.30;70.10;;;;;;5044197;28;20048;-72
2022/11/09 07:46:20;;;;;;;3.58;1.42;;;16.40;70.10;;;;;;5054431;28;20045;-73
2022/11/09 07:48:47;;;;;;;2.08;1.50;;;16.40;70.00;;;;;;5053201;28;20057;-73
2022/11/09 07:51:13;;;;;;;3.78;1.63;;;16.40;70.00;;;;;;5053125;28;20067;-73
2022/11/09 07:53:40;;;;;;;4.25;1.52;;;16.40;69.90;;;;;;5033637;28;20532;-73
2022/11/09 07:56:07;;;;;;;4.40;1.50;;;16.50;69.90;;;;;;5033514;28;20111;-73
2022/11/09 07:58:35;;;;;;;3.53;1.50;;;16.50;69.90;;;;;;5032845;28;20061;-73
2022/11/09 08:01:06;;;;;;;2.65;1.33;;;16.60;69.80;;;;;;5032411;28;20049;-73
2022/11/09 08:03:34;;;;;;;2.33;1.25;;;16.60;69.70;;;;;;5058139;28;20053;-73
2022/11/09 08:06:00;;;;;;;3.08;1.50;;;16.60;69.70;;;;;;5032913;28;20483;-73
2022/11/09 08:08:27;;;;;;;2.35;1.30;;;16.60;69.60;;;;;;5034134;28;20060;-73
2022/11/09 08:10:56;;;;;;;4.05;1.60;;;16.70;69.60;;;;;;5066005;28;20068;-74
2022/11/09 08:13:22;;;;;;;2.30;1.48;;;16.70;69.60;;;;;;5033246;28;20054;-73
2022/11/09 08:15:49;;;;;;;2.97;1.55;;;16.70;69.50;;;;;;5066368;28;20471;-74
2022/11/09 08:18:17;;;;;;;2.92;1.40;;;16.70;69.40;;;;;;5065915;28;20057;-74
2022/11/09 08:20:45;;;;;;;3.53;1.58;;;16.70;69.40;;;;;;5064831;28;20060;-74
2022/11/09 08:23:12;;;;;;;4.68;1.70;;;16.80;69.40;;;;;;5032618;28;20060;-74
2022/11/09 08:25:39;;;;;;;4.30;1.80;;;16.80;69.40;;;;;;5032473;28;20060;-74
2022/11/09 08:28:05;;;;;;;2.47;1.60;;;16.80;69.30;;;;;;5032271;28;20064;-73
2022/11/09 08:30:32;;;;;;;2.28;1.50;;;16.80;69.30;;;;;;5038972;28;20426;-73
2022/11/09 08:32:59;;;;;;;2.47;1.30;;;16.90;69.30;;;;;;5031434;28;20054;-73
2022/11/09 08:35:26;;;;;;;2.75;1.50;;;16.90;69.20;;;;;;5049347;28;20041;-73
2022/11/09 08:37:54;;;;;;;2.85;1.40;;;16.90;69.20;;;;;;5032080;28;20056;-73
2022/11/09 08:40:22;;;;;;;3.33;1.30;;;16.90;69.20;;;;;;5031803;28;20135;-73
2022/11/09 08:42:49;;;;;;;2.92;1.40;;;16.90;69.10;;;;;;5036382;28;20075;-73
2022/11/09 08:45:16;;;;;;;4.38;1.52;;;16.90;69.10;;;;;;5052610;28;20055;-73
2022/11/09 08:47:43;;;;;;;3.75;1.50;;;16.90;69.10;;;;;;5051945;28;20053;-73
2022/11/09 08:50:10;;;;;;;2.78;1.35;;;16.90;69.10;;;;;;5051956;28;20053;-73
2022/11/09 08:52:37;;;;;;;1.77;1.13;;;17.00;69.10;;;;;;5050628;28;20128;-73
2022/11/09 08:55:05;;;;;;;2.30;1.30;;;17.00;69.10;;;;;;5032486;28;20041;-73
2022/11/09 08:57:32;;;;;;;4.30;1.83;;;17.00;69.10;;;;;;5031444;28;20071;-73
2022/11/09 08:59:59;;;;;;;1.92;1.30;;;17.00;69.00;;;;;;5031650;28;20053;-72
2022/11/09 09:02:25;;;;;;;3.15;1.38;;;17.00;69.00;;;;;;5031927;28;20136;-72
2022/11/09 09:04:52;;;;;;;3.42;1.40;;;17.00;69.10;;;;;;5032343;28;20402;-73
2022/11/09 09:07:19;;;;;;;2.08;1.20;;;17.10;69.10;;;;;;5030964;28;20050;-72
2022/11/09 09:09:46;;;;;;;1.73;1.20;;;17.10;69.10;;;;;;5030346;28;20059;-72
2022/11/09 09:12:14;;;;;;;2.92;1.30;;;17.10;69.00;;;;;;5031702;28;20049;-72
2022/11/09 09:14:40;;;;;;;3.63;1.30;;;17.10;69.00;;;;;;5032917;28;20458;-72
2022/11/09 09:17:07;;;;;;;2.65;1.30;;;17.10;68.90;;;;;;5035197;28;20137;-74
2022/11/09 09:19:34;;;;;;;2.42;1.40;;;17.10;68.90;;;;;;5032091;28;20057;-73
2022/11/09 09:22:01;;;;;;;2.33;1.30;;;17.10;68.90;;;;;;5031161;28;20058;-73
2022/11/09 09:24:28;;;;;;;2.35;1.30;;;17.20;68.90;;;;;;5031181;28;20095;-74
2022/11/09 09:26:54;;;;;;;3.42;1.35;;;17.20;68.90;;;;;;5031788;28;20057;-73
2022/11/09 09:29:22;;;;;;;2.92;1.40;;;17.20;68.80;;;;;;5031558;28;20057;-73
2022/11/09 09:31:49;;;;;;;3.88;1.42;;;17.20;68.80;;;;;;5031945;28;20084;-72
2022/11/09 09:34:16;;;;;;;1.70;1.20;;;17.20;68.80;;;;;;5031260;28;20068;-73
2022/11/09 09:36:43;;;;;;;2.08;1.10;;;17.20;68.80;;;;;;5032634;28;20205;-74
2022/11/09 09:39:09;;;;;;;2.88;1.45;;;17.20;68.80;;;;;;5031071;28;20513;-74
2022/11/09 09:41:37;;;;;;;2.60;1.20;;;17.30;68.80;;;;;;5030899;28;20063;-74
2022/11/09 09:44:13;;;;;;;1.55;1.20;;;17.30;68.80;;;;;;5031444;28;20486;-74
2022/11/09 09:46:43;;;;;;;3.45;1.38;;;17.30;68.80;;;;;;5030681;28;20194;-74
2022/11/09 09:49:12;;;;;;;2.30;1.20;;;17.30;68.80;;;;;;5030962;28;20172;-73
2022/11/09 09:51:42;;;;;;;2.83;1.20;;;17.30;68.80;;;;;;5030761;28;20140;-74
2022/11/09 09:54:12;;;;;;;2.72;1.20;;;17.30;68.80;;;;;;5033485;28;20049;-74
2022/11/09 09:56:39;;;;;;;3.70;1.50;;;17.30;68.70;;;;;;5040854;28;20049;-74
2022/11/09 09:59:11;;;;;;;2.17;1.27;;;17.30;68.70;;;;;;5039010;28;20063;-73
2022/11/09 10:01:38;;;;;;;2.45;1.30;;;17.30;68.70;;;;;;5030362;28;20068;-72
2022/11/09 10:04:14;;;;;;;1.75;1.10;;;17.30;68.70;;;;;;5031037;28;20065;-73
2022/11/09 10:06:43;;;;;;;2.15;1.33;;;17.30;68.70;;;;;;5033548;28;20053;-73
2022/11/09 10:09:21;;;;;;;3.25;1.30;;;17.30;68.70;;;;;;5029919;28;20049;-73
2022/11/09 10:11:51;;;;;;;3.53;1.20;;;17.30;68.70;;;;;;5030172;28;20056;-72
2022/11/09 10:14:40;;;;;;;1.75;1.20;;;17.30;68.70;;;;;;5031018;28;20144;-73
2022/11/09 10:17:11;;;;;;;2.58;1.23;;;17.30;68.80;;;;;;5030788;28;20061;-73
2022/11/09 10:19:47;;;;;;;2.13;1.40;;;17.30;68.90;;;;;;5030624;28;20065;-73
2022/11/09 10:22:17;;;;;;;3.17;1.35;;;17.30;69.00;;;;;;5029687;28;20061;-73
2022/11/09 10:24:48;;;;;;;4.90;1.23;;;17.30;69.00;;;;;;5030990;28;20136;-73
2022/11/09 10:27:26;;;;;;;3.42;1.30;;;17.30;69.10;;;;;;5031076;28;20057;-74
2022/11/09 10:29:52;;;;;;;3.47;1.30;;;17.30;69.10;;;;;;5031092;28;20079;-72
2022/11/09 10:32:20;;;;;;;2.33;1.35;;;17.30;69.60;;;;;;5031667;28;20084;-73
2022/11/09 10:34:53;;;;;;;1.90;1.20;;;17.30;69.10;;;;;;5030479;28;20049;-73
2022/11/09 10:37:22;;;;;;;2.60;1.50;;;17.20;69.10;;;;;;5030741;28;20068;-74
2022/11/09 10:39:51;;;;;;;3.20;1.60;;;17.20;69.10;;;;;;5030651;28;20059;-74
2022/11/09 10:42:18;;;;;;;3.15;1.40;;;17.30;69.20;;;;;;5036854;28;20049;-73
2022/11/09 10:44:44;;;;;;;2.28;1.20;;;17.20;69.20;;;;;;5040222;28;20059;-73
2022/11/09 10:47:12;;;;;;;2.90;1.10;;;17.20;69.20;;;;;;5038756;28;20060;-74
2022/11/09 10:49:39;;;;;;;3.15;1.25;;;17.20;69.20;;;;;;5038880;28;20046;-73
2022/11/09 10:52:31;;;;;;;1.60;1.00;;;17.20;69.20;;;;;;5038661;28;20049;-73
2022/11/09 10:55:17;;;;;;;2.33;1.30;;;17.20;69.10;;;;;;5037975;28;20491;-73
2022/11/09 10:57:50;;;;;;;;;;;17.20;69.10;;;;;;5042814;28;20401;-74
2022/11/09 11:00:18;;;;;;;2.58;1.25;;;18.80;70.00;;;;;;5048732;28;19999;-73
2022/11/09 11:02:46;;;;;;;2.53;1.27;;;17.10;69.30;;;;;;5049838;28;20334;-73
2022/11/09 11:05:33;;;;;;;2.63;1.10;;;17.10;69.20;;;;;;5048243;28;20053;-73
2022/11/09 11:08:26;;;;;;;4.90;1.58;;;17.20;69.20;;;;;;5015859;28;20305;-73
2022/11/09 11:10:57;;;;;;;1.88;1.10;;;17.20;69.20;;;;;;5009584;28;20089;-73
2022/11/09 11:13:24;;;;;;;1.95;1.20;;;17.10;69.20;;;;;;5011056;28;20068;-73
2022/11/09 11:15:51;;;;;;;2.33;1.20;;;17.10;69.20;;;;;;5012649;28;20050;-73
2022/11/09 11:18:23;;;;;;;2.45;1.10;;;17.20;69.20;;;;;;5045441;28;20601;-73
2022/11/09 11:21:05;;;;;;;2.05;1.20;;;17.20;69.20;;;;;;5038447;28;20422;-74
2022/11/09 11:23:35;;;;;;;3.20;1.60;;;17.20;69.20;;;;;;5041262;28;20140;-74
2022/11/09 11:26:20;;;;;;;2.03;1.27;;;17.20;69.20;;;;;;5047605;28;20064;-74
2022/11/09 11:28:49;;;;;;;2.50;1.20;;;17.20;69.10;;;;;;5053249;28;20049;-74
2022/11/09 11:31:19;;;;;;;3.67;1.30;;;17.20;69.20;;;;;;5042456;28;20498;-73
2022/11/09 11:33:45;;;;;;;2.97;1.40;;;17.20;69.20;;;;;;5033250;28;20057;-74
2022/11/09 11:36:16;;;;;;;2.72;1.30;;;17.20;69.30;;;;;;5033440;28;20053;-74
2022/11/09 11:38:50;;;;;;;2.42;1.00;;;17.20;69.20;;;;;;5033464;28;20059;-74
2022/11/09 11:41:40;;;;;;;3.72;1.30;;;17.20;69.30;;;;;;5032979;28;20056;-74
2022/11/09 11:44:12;;;;;;;2.38;1.17;;;17.20;69.70;;;;;;5033161;28;20057;-74
2022/11/09 11:46:41;;;;;;;1.52;1.10;;;17.10;69.20;;;;;;5031411;28;20055;-74
2022/11/09 11:49:32;;;;;;;1.50;1.08;;;17.10;69.20;;;;;;5033769;28;20141;-73
2022/11/09 11:52:01;;;;;;;2.42;1.30;;;17.10;69.10;;;;;;5033855;28;20513;-74
2022/11/09 11:54:34;;;;;;;3.70;1.30;;;17.10;69.20;;;;;;5033413;28;20057;-73
2022/11/09 11:57:04;;;;;;;1.80;1.08;;;17.10;69.20;;;;;;5033225;28;20391;-73
2022/11/09 11:59:41;;;;;;;3.65;1.30;;;17.10;69.20;;;;;;5033527;28;20089;-74
2022/11/09 12:02:24;;;;;;;3.72;1.30;;;17.10;69.30;;;;;;5032437;28;20060;-73
2022/11/09 12:05:01;;;;;;;1.30;1.00;;;17.10;69.20;;;;;;5033167;28;20053;-74
2022/11/09 12:07:33;;;;;;;2.28;1.20;;;17.10;69.20;;;;;;5035964;28;20494;-73
2022/11/09 12:10:14;;;;;;;3.28;1.20;;;17.10;69.20;;;;;;5042190;28;20142;-73
2022/11/09 12:12:45;;;;;;;2.15;1.20;;;17.10;69.20;;;;;;5041617;28;20493;-73
2022/11/09 12:15:21;;;;;;;2.80;1.30;;;17.10;69.20;;;;;;5040604;28;20045;-73
2022/11/09 12:17:52;;;;;;;2.22;1.10;;;17.10;69.20;;;;;;5041628;28;20567;-73
2022/11/09 12:20:22;;;;;;;3.05;1.23;;;17.10;69.20;;;;;;5042041;28;20134;-73
2022/11/09 12:22:55;;;;;;;1.80;1.17;;;17.10;69.20;;;;;;5043529;28;20405;-73
2022/11/09 12:25:26;;;;;;;2.83;1.25;;;17.10;69.30;;;;;;5040480;28;20136;-74
2022/11/09 12:28:06;;;;;;;2.20;1.20;;;17.10;69.30;;;;;;5041821;28;20132;-74
2022/11/09 12:30:44;;;;;;;1.80;1.15;;;17.10;69.30;;;;;;5039722;28;20565;-74
2022/11/09 12:33:13;;;;;;;2.30;1.10;;;17.10;69.60;;;;;;5050430;28;20049;-74
2022/11/09 12:35:41;;;;;;;1.90;1.00;;;17.10;69.30;;;;;;5053217;28;20063;-74
2022/11/09 12:38:11;;;;;;;2.60;1.13;;;17.10;69.30;;;;;;5052790;28;20052;-74
2022/11/09 12:40:42;;;;;;;1.67;1.00;;;17.10;69.30;;;;;;5052456;28;20060;-73
2022/11/09 12:43:14;;;;;;;4.57;1.30;;;17.00;69.30;;;;;;5048855;28;20414;-73
2022/11/09 12:45:41;;;;;;;1.63;1.00;;;17.00;69.30;;;;;;5032436;28;20506;-73
2022/11/09 12:48:13;;;;;;;2.33;1.17;;;17.00;69.30;;;;;;5032393;28;20379;-73
2022/11/09 12:50:40;;;;;;;2.92;1.05;;;17.00;69.30;;;;;;5033259;28;20050;-73
2022/11/09 12:53:07;;;;;;;1.33;0.90;;;17.00;69.30;;;;;;5032496;28;20057;-73